Ocean Springs, MS (39564)

5:28 AM CDT on August 05, 2015 (GMT -0500)
Colonial Estates | | Change Station
CLOSE
Current Station
Personal Weather Station
Location: Ocean Springs, MS
Elevation: 23 ft
Nearby Weather Stations

Elev 23 ft 30.42 °N, 88.75 °W | Updated 8 seconds ago

Thunderstorm
Thunderstorm
75.9 °F
Feels Like 75 °F
N
0.0
Wind Variable Wind from North
Gusts 0.0 mph

Today
High -- | Low -- °F
--% Chance of Precip.
Yesterday
High -- | Low -- °F
Precip. -- in
6:15 AM 7:46 PM
Waning Gibbous, 68% visible
Pressure 29.99 in
Visibility 10.0 miles
Clouds Scattered Clouds 2100 ft
Scattered Clouds 6500 ft
Mostly Cloudy 11000 ft
Heat Index 75 °F
Dew Point 75 °F
Humidity 96%
Rainfall 1.50 in
Snow Depth Not available.
UV 0 out of 12
Pollen 3.00 out of 12
Air Quality Not available.
Flu Activity Not available.
METAR KBIX 050958Z AUTO VRB03KT 10SM TS SCT021 SCT065 BKN110 26/25 A2998 RMK AO2 LTG DSNT NE-SE AND SW RAE27 SLP155 P0007 T02610252

More Conditions Fewer Conditions

Pressure 29.99 in
Visibility 10.0 miles
Clouds Scattered Clouds 2100 ft
Scattered Clouds 6500 ft
Mostly Cloudy 11000 ft
Heat Index 75 °F
Dew Point 75 °F
Humidity 96%
Rainfall 1.50 in
Snow Depth Not available.
UV 0 out of 12
Pollen 3.00 out of 12
Air Quality Not available.
Flu Activity Not available.
METAR KBIX 050958Z AUTO VRB03KT 10SM TS SCT021 SCT065 BKN110 26/25 A2998 RMK AO2 LTG DSNT NE-SE AND SW RAE27 SLP155 P0007 T02610252

More Conditions Fewer Conditions

10-Day Weather Forecast

×

Almanac

Astronomy

Aug. 05, 2015 Rise Set
Actual Time
Civil Twilight
Nautical Twilight
Astronomical Twilight
Moon
Length of Visible Light
Length of Day
Tomorrow will be .
, % of the Moon is Illuminated

Today's Extremes

State Highs State Lows

Community

WunderPhotos

Upload Photos

1,844,113 photos uploaded!

WunderBlogs® & News

Nearby

Air Quality

  Air Quality AQ Index Pollutant
Not available.

Snow Depth

Station Depth Elevation

Earthquake Activity

City Distance Mag. Time & Date
Minimum magnitude displayed is 2.5.

Coastal Water Temperatures

Place Temperature

Stations

Nearby Weather Stations

Station Location Temp. Windchill Dew Point Humidity Wind Precip. Elev Updated Type